createdAt,value
2023-05-05T00:00:41.288Z,43.84
2023-05-05T00:01:41.337Z,43.84
2023-05-05T00:02:41.511Z,43.85
2023-05-05T00:03:41.579Z,43.85
2023-05-05T00:04:41.601Z,43.83
2023-05-05T00:05:41.676Z,43.83
2023-05-05T00:06:41.766Z,43.84
2023-05-05T00:07:41.856Z,43.81
2023-05-05T00:08:41.934Z,43.84
2023-05-05T00:09:42.024Z,43.82
2023-05-05T00:10:42.113Z,43.82
2023-05-05T00:11:42.190Z,43.85
2023-05-05T00:12:42.408Z,43.86
2023-05-05T00:13:42.369Z,43.84
2023-05-05T00:14:42.465Z,43.85
2023-05-05T00:15:42.568Z,43.83
2023-05-05T00:16:42.665Z,43.83
2023-05-05T00:17:42.737Z,43.83
2023-05-05T00:18:42.802Z,43.82
2023-05-05T00:19:42.894Z,43.82
2023-05-05T00:20:43.000Z,43.82
2023-05-05T00:21:43.055Z,43.82
2023-05-05T00:22:43.151Z,43.81
2023-05-05T00:23:43.305Z,43.83
2023-05-05T00:24:43.314Z,43.82
2023-05-05T00:25:43.416Z,43.79
2023-05-05T00:26:43.487Z,43.80
2023-05-05T00:27:43.658Z,43.79
2023-05-05T00:28:43.663Z,43.79
2023-05-05T00:29:43.748Z,43.81
2023-05-05T00:30:43.834Z,43.79
2023-05-05T00:31:43.972Z,43.81
2023-05-05T00:32:44.043Z,43.79
2023-05-05T00:33:44.089Z,43.80
2023-05-05T00:34:44.171Z,43.79
2023-05-05T00:35:44.305Z,43.82
2023-05-05T00:36:45.356Z,43.81
2023-05-05T00:37:44.426Z,43.81
2023-05-05T00:38:44.513Z,43.80
2023-05-05T00:39:44.602Z,43.80
2023-05-05T00:40:44.815Z,43.80
2023-05-05T00:41:44.764Z,43.80
2023-05-05T00:42:44.853Z,43.81
2023-05-05T00:43:44.932Z,43.83
2023-05-05T00:44:45.034Z,43.79
2023-05-05T00:45:45.095Z,43.81
2023-05-05T00:46:45.224Z,43.79
2023-05-05T00:47:45.283Z,43.81
2023-05-05T00:48:45.350Z,43.79
2023-05-05T00:49:45.482Z,43.82
2023-05-05T00:50:45.515Z,43.80
2023-05-05T00:51:45.615Z,43.81
2023-05-05T00:52:45.690Z,43.80
2023-05-05T00:53:45.762Z,43.79
2023-05-05T00:54:45.872Z,43.78
2023-05-05T00:55:46.001Z,43.76
2023-05-05T00:56:46.807Z,43.80
2023-05-05T00:57:46.131Z,43.80
2023-05-05T00:58:46.202Z,43.77
2023-05-05T00:59:46.323Z,43.80
2023-05-05T01:00:46.372Z,43.79
2023-05-05T01:01:46.533Z,43.84
2023-05-05T01:02:46.749Z,43.81
2023-05-05T01:03:46.685Z,43.81
2023-05-05T01:04:46.705Z,43.81
2023-05-05T01:05:46.793Z,43.79
2023-05-05T01:06:46.889Z,43.80
2023-05-05T01:07:46.972Z,43.79
2023-05-05T01:08:47.050Z,43.76
2023-05-05T01:09:47.142Z,43.77
2023-05-05T01:10:47.226Z,43.76
2023-05-05T01:11:47.378Z,43.78
2023-05-05T01:12:47.464Z,43.74
2023-05-05T01:13:47.557Z,43.77
2023-05-05T01:14:47.669Z,43.78
2023-05-05T01:15:47.684Z,43.75
2023-05-05T01:16:47.773Z,43.77
2023-05-05T01:17:47.912Z,43.75
2023-05-05T01:18:47.953Z,43.76
2023-05-05T01:19:48.036Z,43.76
2023-05-05T01:20:48.147Z,43.71
2023-05-05T01:21:48.234Z,43.76
2023-05-05T01:22:48.331Z,43.76
2023-05-05T01:23:48.470Z,43.71
2023-05-05T01:24:48.508Z,43.72
2023-05-05T01:25:48.593Z,43.71
2023-05-05T01:26:48.686Z,43.72
2023-05-05T01:27:48.772Z,43.73
2023-05-05T01:28:48.870Z,43.72
2023-05-05T01:29:48.975Z,43.73
2023-05-05T01:30:49.053Z,43.73
2023-05-05T01:31:49.185Z,43.68
2023-05-05T01:32:49.263Z,43.66
2023-05-05T01:33:49.311Z,43.68
2023-05-05T01:34:49.392Z,43.68
2023-05-05T01:35:49.490Z,43.72
2023-05-05T01:36:49.564Z,43.69
2023-05-05T01:37:49.661Z,43.72
2023-05-05T01:38:49.725Z,43.69
2023-05-05T01:39:49.844Z,43.68
2023-05-05T01:40:49.908Z,43.65
2023-05-05T01:41:49.988Z,43.67
2023-05-05T01:42:50.079Z,43.62
2023-05-05T01:43:50.158Z,43.63
2023-05-05T01:44:50.249Z,43.66
2023-05-05T01:45:50.438Z,43.61
2023-05-05T01:46:50.436Z,43.63
2023-05-05T01:47:50.534Z,43.63
2023-05-05T01:48:50.629Z,43.61
2023-05-05T01:49:50.731Z,43.59
2023-05-05T01:50:50.814Z,43.63
2023-05-05T01:51:50.910Z,43.61
2023-05-05T01:52:51.340Z,43.63
2023-05-05T01:53:51.087Z,43.63
2023-05-05T01:54:51.179Z,43.60
2023-05-05T01:55:51.259Z,43.62
2023-05-05T01:56:51.835Z,43.61
2023-05-05T01:57:51.442Z,43.59
2023-05-05T01:58:51.543Z,43.60
2023-05-05T01:59:51.640Z,43.59
2023-05-05T02:00:51.755Z,43.57
2023-05-05T02:01:51.903Z,43.57
2023-05-05T02:02:51.952Z,43.59
2023-05-05T02:03:51.985Z,43.56
2023-05-05T02:04:52.071Z,43.52
2023-05-05T02:05:52.169Z,43.52
2023-05-05T02:06:52.231Z,43.47
2023-05-05T02:07:52.328Z,43.52
2023-05-05T02:08:52.378Z,43.52
2023-05-05T02:09:52.452Z,43.52
2023-05-05T02:10:52.527Z,43.50
2023-05-05T02:11:52.704Z,43.51
2023-05-05T02:12:52.791Z,43.52
2023-05-05T02:13:52.795Z,43.51
2023-05-05T02:14:52.868Z,43.47
2023-05-05T02:15:53.011Z,43.50
2023-05-05T02:16:53.099Z,43.52
2023-05-05T02:17:53.219Z,43.50
2023-05-05T02:18:53.176Z,43.50
2023-05-05T02:19:53.289Z,43.54
2023-05-05T02:20:53.371Z,43.53
2023-05-05T02:21:53.452Z,43.55
2023-05-05T02:22:53.518Z,43.53
2023-05-05T02:23:53.610Z,43.54
2023-05-05T02:24:53.660Z,43.55
2023-05-05T02:25:53.773Z,43.56
2023-05-05T02:26:53.846Z,43.52
2023-05-05T02:27:53.954Z,43.54
2023-05-05T02:28:54.040Z,43.55
2023-05-05T02:29:54.111Z,43.52
2023-05-05T02:30:56.889Z,43.52
2023-05-05T02:31:54.234Z,43.49
2023-05-05T02:32:54.335Z,43.52
2023-05-05T02:33:54.280Z,43.52
2023-05-05T02:34:54.309Z,43.46
2023-05-05T02:35:54.330Z,43.51
2023-05-05T02:36:54.357Z,43.47
2023-05-05T02:37:54.379Z,43.47
2023-05-05T02:38:54.412Z,43.50
2023-05-05T02:39:54.414Z,43.48
2023-05-05T02:40:54.455Z,43.52
2023-05-05T02:41:54.530Z,43.51
2023-05-05T02:42:54.577Z,43.52
2023-05-05T02:43:54.523Z,43.50
2023-05-05T02:44:54.549Z,43.49
2023-05-05T02:45:54.568Z,43.52
2023-05-05T02:46:54.728Z,43.52
2023-05-05T02:47:54.639Z,43.53
2023-05-05T02:48:54.623Z,43.52
2023-05-05T02:49:54.643Z,43.52
2023-05-05T02:50:54.669Z,43.52
2023-05-05T02:51:54.709Z,43.54
2023-05-05T02:52:54.709Z,43.54
2023-05-05T02:53:54.739Z,43.53
2023-05-05T02:54:54.831Z,43.55
2023-05-05T02:55:54.773Z,43.52
2023-05-05T02:56:54.795Z,43.52
2023-05-05T02:57:54.808Z,43.53
2023-05-05T02:58:54.824Z,43.51
2023-05-05T02:59:54.844Z,43.51
2023-05-05T03:00:54.930Z,43.49
2023-05-05T03:01:54.933Z,43.48
2023-05-05T03:02:55.005Z,43.50
2023-05-05T03:03:54.975Z,43.49
2023-05-05T03:04:54.987Z,43.51
2023-05-05T03:05:54.965Z,43.48
2023-05-05T03:06:55.007Z,43.51
2023-05-05T03:07:55.373Z,43.49
2023-05-05T03:08:55.040Z,43.52
2023-05-05T03:09:55.051Z,43.50
2023-05-05T03:10:55.085Z,43.50
2023-05-05T03:11:55.105Z,43.51
2023-05-05T03:12:55.184Z,43.53
2023-05-05T03:13:55.172Z,43.50
2023-05-05T03:14:55.882Z,43.54
2023-05-05T03:15:55.354Z,43.52
2023-05-05T03:16:55.406Z,43.53
2023-05-05T03:17:55.578Z,43.50
2023-05-05T03:18:55.520Z,43.48
2023-05-05T03:19:55.611Z,43.50
2023-05-05T03:20:55.715Z,43.47
2023-05-05T03:21:55.790Z,43.48
2023-05-05T03:22:56.867Z,43.48
2023-05-05T03:23:55.965Z,43.47
2023-05-05T03:24:56.025Z,43.48
2023-05-05T03:25:56.086Z,43.45
2023-05-05T03:26:56.165Z,43.43
2023-05-05T03:27:56.238Z,43.45
2023-05-05T03:28:56.304Z,43.44
2023-05-05T03:29:56.471Z,43.43
2023-05-05T03:30:56.473Z,43.45
2023-05-05T03:31:56.567Z,43.46
2023-05-05T03:32:56.629Z,43.42
2023-05-05T03:33:56.645Z,43.44
2023-05-05T03:34:56.789Z,43.45
2023-05-05T03:35:56.828Z,43.46
2023-05-05T03:36:56.826Z,43.46
2023-05-05T03:37:56.914Z,43.47
2023-05-05T03:38:56.968Z,43.45
2023-05-05T03:39:57.032Z,43.42
2023-05-05T03:40:57.106Z,43.45
2023-05-05T03:41:57.169Z,43.44
2023-05-05T03:42:57.226Z,43.45
2023-05-05T03:43:57.300Z,43.44
2023-05-05T03:44:57.366Z,43.43
2023-05-05T03:45:57.494Z,43.45
2023-05-05T03:46:57.631Z,43.46
2023-05-05T03:47:57.639Z,43.47
2023-05-05T03:48:57.718Z,43.47
2023-05-05T03:49:57.795Z,43.49
2023-05-05T03:50:57.844Z,43.46
2023-05-05T03:51:57.895Z,43.46
2023-05-05T03:52:57.963Z,43.50
2023-05-05T03:53:57.991Z,43.46
2023-05-05T03:54:58.025Z,43.50
2023-05-05T03:55:58.064Z,43.48
2023-05-05T03:56:58.113Z,43.50
2023-05-05T03:57:58.168Z,43.51
2023-05-05T03:58:58.237Z,43.49
2023-05-05T03:59:58.277Z,43.48
2023-05-05T04:00:58.330Z,43.48
2023-05-05T04:01:58.355Z,43.46
2023-05-05T04:02:58.469Z,43.44
2023-05-05T04:03:58.404Z,43.44
2023-05-05T04:04:58.416Z,43.43
2023-05-05T04:05:58.435Z,43.44
2023-05-05T04:06:58.486Z,43.45
2023-05-05T04:07:58.498Z,43.44
2023-05-05T04:08:58.517Z,43.42
2023-05-05T04:09:58.564Z,43.44
2023-05-05T04:10:58.923Z,43.46
2023-05-05T04:11:58.618Z,43.42
2023-05-05T04:12:58.698Z,43.42
2023-05-05T04:13:58.676Z,43.44
2023-05-05T04:14:58.707Z,43.41
2023-05-05T04:15:58.738Z,43.42
2023-05-05T04:16:58.745Z,43.40
2023-05-05T04:17:58.842Z,43.41
2023-05-05T04:18:58.792Z,43.40
2023-05-05T04:19:58.825Z,43.40
2023-05-05T04:20:58.852Z,43.42
2023-05-05T04:21:58.851Z,43.43
2023-05-05T04:22:58.885Z,43.39
2023-05-05T04:23:58.961Z,43.42
2023-05-05T04:24:58.937Z,43.40
2023-05-05T04:25:59.002Z,43.41
2023-05-05T04:26:59.016Z,43.41
2023-05-05T04:27:59.061Z,43.41
2023-05-05T04:28:59.100Z,43.40
2023-05-05T04:29:59.152Z,43.39
2023-05-05T04:30:59.180Z,43.39
2023-05-05T04:31:59.194Z,43.38
2023-05-05T04:32:59.249Z,43.38
2023-05-05T04:33:59.250Z,43.39
2023-05-05T04:34:59.290Z,43.38
2023-05-05T04:35:59.318Z,43.36
2023-05-05T04:36:59.350Z,43.38
2023-05-05T04:37:59.367Z,43.38
2023-05-05T04:38:59.494Z,43.40
2023-05-05T04:39:59.408Z,43.37
2023-05-05T04:40:59.456Z,43.36
2023-05-05T04:41:59.456Z,43.38
2023-05-05T04:42:59.500Z,43.35
2023-05-05T04:43:59.527Z,43.32
2023-05-05T04:44:59.618Z,43.34
2023-05-05T04:45:59.579Z,43.35
2023-05-05T04:46:59.607Z,43.35
2023-05-05T04:47:59.762Z,43.38
2023-05-05T04:48:59.661Z,43.37
2023-05-05T04:49:59.694Z,43.37
2023-05-05T04:50:59.729Z,43.36
2023-05-05T04:51:59.763Z,43.38
2023-05-05T04:52:59.869Z,43.37
2023-05-05T04:53:59.851Z,43.35
2023-05-05T04:54:59.926Z,43.36
2023-05-05T04:55:59.881Z,43.31
2023-05-05T04:56:59.905Z,43.32
2023-05-05T04:57:59.955Z,43.31
2023-05-05T04:58:59.969Z,43.32
2023-05-05T04:59:59.983Z,43.31
2023-05-05T05:01:00.005Z,43.36
2023-05-05T05:02:00.085Z,43.34
2023-05-05T05:03:00.150Z,43.36
2023-05-05T05:04:00.340Z,43.36
2023-05-05T05:05:00.160Z,43.34
2023-05-05T05:06:00.150Z,43.36
2023-05-05T05:07:00.170Z,43.33
2023-05-05T05:08:00.203Z,43.32
2023-05-05T05:09:00.225Z,43.33
2023-05-05T05:10:00.260Z,43.30
2023-05-05T05:11:00.292Z,43.32
2023-05-05T05:12:00.314Z,43.32
2023-05-05T05:13:00.373Z,43.32
2023-05-05T05:14:00.361Z,43.32
2023-05-05T05:15:00.512Z,43.31
2023-05-05T05:16:00.551Z,43.33
2023-05-05T05:17:00.468Z,43.32
2023-05-05T05:18:00.521Z,43.19
2023-05-05T05:19:01.798Z,42.85
2023-05-05T05:20:01.559Z,42.51
2023-05-05T05:21:00.596Z,42.44
2023-05-05T05:22:00.668Z,42.83
2023-05-05T05:23:00.654Z,43.01
2023-05-05T05:24:00.892Z,42.79
2023-05-05T05:25:00.697Z,43.16
2023-05-05T05:26:00.733Z,43.30
2023-05-05T05:27:00.761Z,42.76
2023-05-05T05:28:09.448Z,40.86
2023-05-05T05:29:01.824Z,42.47
2023-05-05T05:30:01.139Z,42.70
2023-05-05T05:31:00.886Z,42.56
2023-05-05T05:32:01.093Z,42.37
2023-05-05T05:33:00.961Z,40.55
2023-05-05T05:34:01.198Z,40.52
2023-05-05T05:35:01.024Z,37.98
2023-05-05T05:36:01.073Z,38.47
2023-05-05T05:37:01.183Z,38.22
2023-05-05T05:38:01.177Z,38.10
2023-05-05T05:39:01.209Z,38.45
2023-05-05T05:40:01.265Z,38.94
2023-05-05T05:41:01.319Z,38.82
2023-05-05T05:42:01.445Z,38.97
2023-05-05T05:43:01.586Z,38.33
2023-05-05T05:44:01.683Z,38.40
2023-05-05T05:45:01.795Z,38.09
2023-05-05T05:46:01.947Z,38.53
2023-05-05T05:47:02.002Z,38.78
2023-05-05T05:48:02.156Z,37.94
2023-05-05T05:49:02.242Z,38.39
2023-05-05T05:50:02.309Z,38.70
2023-05-05T05:51:02.423Z,38.49
2023-05-05T05:52:02.519Z,38.70
2023-05-05T05:53:02.618Z,38.64
2023-05-05T05:54:02.717Z,39.17
2023-05-05T05:55:02.823Z,38.47
2023-05-05T05:56:03.851Z,38.65
2023-05-05T05:57:03.030Z,38.70
2023-05-05T05:58:03.105Z,39.01
2023-05-05T05:59:03.190Z,38.34
2023-05-05T06:00:03.281Z,38.33
2023-05-05T06:01:03.372Z,38.08
2023-05-05T06:02:03.484Z,38.21
2023-05-05T06:03:03.581Z,37.86
2023-05-05T06:04:03.744Z,38.54
2023-05-05T06:05:04.447Z,38.17
2023-05-05T06:06:03.841Z,38.13
2023-05-05T06:07:03.946Z,37.11
2023-05-05T06:08:04.055Z,37.45
2023-05-05T06:09:04.177Z,38.24
2023-05-05T06:10:18.676Z,37.37
2023-05-05T06:11:05.324Z,38.10
2023-05-05T06:12:04.355Z,37.97
2023-05-05T06:13:04.447Z,38.11
2023-05-05T06:14:04.454Z,38.30
2023-05-05T06:15:04.504Z,37.65
2023-05-05T06:16:04.571Z,37.09
2023-05-05T06:17:04.613Z,37.33
2023-05-05T06:18:04.783Z,37.77
2023-05-05T06:19:04.709Z,37.30
2023-05-05T06:20:04.819Z,36.97
2023-05-05T06:21:04.912Z,37.31
2023-05-05T06:22:05.020Z,36.98
2023-05-05T06:23:05.152Z,37.26
2023-05-05T06:24:05.274Z,36.90
2023-05-05T06:25:07.929Z,36.78
2023-05-05T06:26:05.643Z,38.00
2023-05-05T06:27:05.764Z,38.61
2023-05-05T06:28:05.942Z,38.76
2023-05-05T06:29:05.951Z,38.85
2023-05-05T06:30:06.191Z,38.80
2023-05-05T06:31:06.103Z,38.92
2023-05-05T06:32:06.142Z,39.08
2023-05-05T06:33:06.278Z,39.07
2023-05-05T06:34:06.350Z,39.06
2023-05-05T06:35:06.421Z,39.27
2023-05-05T06:36:06.496Z,39.34
2023-05-05T06:37:06.698Z,39.42
2023-05-05T06:38:06.659Z,39.55
2023-05-05T06:39:06.642Z,39.58
2023-05-05T06:40:06.931Z,39.62
2023-05-05T06:41:07.467Z,39.67
2023-05-05T06:42:06.748Z,39.77
2023-05-05T06:43:06.789Z,39.92
2023-05-05T06:44:06.867Z,39.99
2023-05-05T06:45:06.945Z,40.11
2023-05-05T06:46:07.001Z,40.23
2023-05-05T06:47:07.161Z,40.42
2023-05-05T06:48:07.264Z,40.48
2023-05-05T06:49:08.026Z,40.56
2023-05-05T06:50:07.542Z,40.78
2023-05-05T06:51:07.415Z,40.90
2023-05-05T06:52:07.485Z,40.99
2023-05-05T06:53:07.545Z,41.08
2023-05-05T06:54:07.630Z,41.18
2023-05-05T06:55:07.708Z,41.26
2023-05-05T06:56:07.774Z,41.36
2023-05-05T06:57:07.848Z,41.60
2023-05-05T06:58:07.905Z,41.61
2023-05-05T06:59:07.965Z,41.75
2023-05-05T07:00:08.319Z,41.78
2023-05-05T07:01:08.234Z,41.95
2023-05-05T07:02:08.166Z,42.09
2023-05-05T07:03:08.249Z,42.05
2023-05-05T07:04:08.361Z,42.20
2023-05-05T07:05:08.328Z,42.40
2023-05-05T07:06:08.378Z,42.52
2023-05-05T07:07:08.446Z,42.65
2023-05-05T07:08:08.465Z,42.76
2023-05-05T07:09:08.532Z,43.00
2023-05-05T07:10:08.753Z,43.17
2023-05-05T07:11:08.603Z,43.16
2023-05-05T07:12:08.903Z,43.24
2023-05-05T07:13:08.702Z,43.37
2023-05-05T07:14:08.727Z,43.48
2023-05-05T07:15:23.475Z,43.70
2023-05-05T07:16:09.796Z,43.79
2023-05-05T07:17:08.899Z,44.02
2023-05-05T07:18:08.895Z,43.66
2023-05-05T07:19:08.993Z,43.69
2023-05-05T07:20:09.132Z,43.61
2023-05-05T07:21:08.836Z,43.60
2023-05-05T07:22:08.847Z,43.82
2023-05-05T07:23:08.849Z,43.84
2023-05-05T07:24:08.870Z,43.86
2023-05-05T07:25:08.877Z,43.94
2023-05-05T07:26:08.897Z,44.07
2023-05-05T07:27:08.923Z,44.27
2023-05-05T07:28:08.933Z,44.41
2023-05-05T07:29:08.912Z,44.53
2023-05-05T07:30:13.018Z,44.73
2023-05-05T07:31:09.970Z,44.88
2023-05-05T07:32:09.039Z,44.96
2023-05-05T07:33:09.058Z,45.10
2023-05-05T07:34:08.973Z,45.25
2023-05-05T07:35:09.024Z,45.43
2023-05-05T07:36:08.969Z,45.66
2023-05-05T07:37:09.898Z,45.81
2023-05-05T07:38:10.894Z,46.01
2023-05-05T07:39:08.996Z,46.17
2023-05-05T07:40:09.359Z,46.35
2023-05-05T07:41:09.013Z,46.43
2023-05-05T07:42:09.012Z,46.58
2023-05-05T07:43:09.015Z,46.75
2023-05-05T07:44:09.014Z,46.89
2023-05-05T07:45:09.023Z,47.04
2023-05-05T07:46:09.265Z,47.21
2023-05-05T07:47:09.014Z,47.40
2023-05-05T07:48:09.129Z,47.55
2023-05-05T07:49:09.139Z,47.66
2023-05-05T07:50:09.350Z,47.88
2023-05-05T07:51:09.017Z,48.13
2023-05-05T07:52:09.031Z,48.28
2023-05-05T07:53:14.496Z,48.21
2023-05-05T07:54:11.032Z,48.30
2023-05-05T07:55:09.015Z,48.46
2023-05-05T07:56:09.103Z,48.42
2023-05-05T07:57:09.035Z,48.50
2023-05-05T07:58:09.062Z,48.59
2023-05-05T07:59:09.036Z,48.66
2023-05-05T08:00:11.996Z,48.94
2023-05-05T08:01:09.037Z,49.03
2023-05-05T08:02:09.034Z,49.19
2023-05-05T08:03:11.688Z,49.31
2023-05-05T08:04:09.638Z,49.45
2023-05-05T08:05:09.822Z,49.64
2023-05-05T08:06:09.054Z,49.84
2023-05-05T08:07:09.051Z,49.89
2023-05-05T08:08:09.086Z,50.02
2023-05-05T08:09:09.051Z,50.00
2023-05-05T08:10:09.055Z,50.15
2023-05-05T08:11:09.070Z,50.59
2023-05-05T08:12:09.047Z,50.56
2023-05-05T08:13:09.081Z,50.36
2023-05-05T08:14:09.064Z,50.64
2023-05-05T08:15:09.354Z,48.75
2023-05-05T08:16:09.172Z,48.70
2023-05-05T08:17:09.110Z,47.60
2023-05-05T08:18:09.114Z,47.17
2023-05-05T08:19:21.173Z,46.54
2023-05-05T08:20:11.018Z,46.92
2023-05-05T08:21:10.007Z,47.07
2023-05-05T08:22:09.172Z,46.80
2023-05-05T08:23:09.189Z,46.75
2023-05-05T08:24:09.208Z,46.66
2023-05-05T08:25:09.337Z,46.64
2023-05-05T08:26:09.233Z,46.57
2023-05-05T08:27:09.237Z,46.57
2023-05-05T08:28:09.269Z,46.52
2023-05-05T08:29:09.496Z,46.54
2023-05-05T08:30:09.274Z,46.56
2023-05-05T08:31:09.330Z,46.57
2023-05-05T08:32:09.314Z,46.59
2023-05-05T08:33:09.344Z,46.60
2023-05-05T08:34:09.334Z,46.60
2023-05-05T08:35:09.531Z,46.64
2023-05-05T08:36:09.401Z,46.62
2023-05-05T08:37:09.360Z,46.65
2023-05-05T08:38:12.009Z,46.66
2023-05-05T08:39:10.427Z,46.65
2023-05-05T08:40:09.678Z,46.69
2023-05-05T08:41:10.516Z,46.68
2023-05-05T08:42:09.712Z,46.68
2023-05-05T08:43:09.753Z,46.70
2023-05-05T08:44:09.761Z,46.71
2023-05-05T08:45:10.689Z,46.73
2023-05-05T08:46:09.827Z,46.73
2023-05-05T08:47:09.999Z,46.75
2023-05-05T08:48:09.913Z,46.72
2023-05-05T08:49:09.938Z,46.76
2023-05-05T08:50:09.984Z,46.75
2023-05-05T08:51:10.037Z,46.79
2023-05-05T08:52:10.208Z,46.78
2023-05-05T08:53:10.103Z,46.83
2023-05-05T08:54:10.202Z,46.80
2023-05-05T08:55:10.230Z,46.81
2023-05-05T08:56:11.076Z,46.83
2023-05-05T08:57:10.273Z,46.85
2023-05-05T08:58:10.332Z,46.85
2023-05-05T08:59:10.367Z,46.85
2023-05-05T09:00:10.409Z,46.88
2023-05-05T09:01:10.484Z,46.91
2023-05-05T09:02:10.550Z,46.93
2023-05-05T09:03:10.673Z,46.92
2023-05-05T09:04:10.596Z,46.96
2023-05-05T09:05:10.683Z,46.94
2023-05-05T09:06:10.704Z,46.95
2023-05-05T09:07:10.718Z,46.94
2023-05-05T09:08:10.948Z,46.95
2023-05-05T09:09:10.813Z,46.95
2023-05-05T09:10:10.862Z,46.98
2023-05-05T09:11:10.915Z,46.97
2023-05-05T09:12:11.037Z,46.97
2023-05-05T09:13:11.042Z,46.96
2023-05-05T09:14:11.057Z,46.97
2023-05-05T09:15:11.124Z,46.99
2023-05-05T09:16:11.262Z,46.96
2023-05-05T09:17:11.238Z,46.95
2023-05-05T09:18:11.365Z,47.09
2023-05-05T09:19:11.398Z,46.85
2023-05-05T09:20:11.417Z,46.55
2023-05-05T09:21:11.494Z,46.68
2023-05-05T09:22:11.607Z,46.62
2023-05-05T09:23:11.627Z,46.63
2023-05-05T09:24:11.855Z,46.61
2023-05-05T09:25:11.733Z,46.66
2023-05-05T09:26:11.725Z,46.68
2023-05-05T09:27:11.728Z,46.69
2023-05-05T09:28:11.747Z,46.50
2023-05-05T09:29:11.758Z,46.39
2023-05-05T09:30:11.756Z,46.39
2023-05-05T09:31:11.822Z,46.47
2023-05-05T09:32:11.763Z,46.32
2023-05-05T09:33:11.805Z,46.28
2023-05-05T09:34:11.777Z,46.28
2023-05-05T09:35:11.852Z,46.38
2023-05-05T09:36:11.759Z,46.43
2023-05-05T09:37:12.577Z,46.55
2023-05-05T09:38:11.798Z,46.39
2023-05-05T09:39:11.802Z,46.35
2023-05-05T09:40:12.019Z,46.51
2023-05-05T09:41:11.800Z,46.59
2023-05-05T09:42:11.784Z,46.49
2023-05-05T09:43:11.831Z,46.48
2023-05-05T09:44:11.794Z,46.51
2023-05-05T09:45:11.807Z,46.40
2023-05-05T09:46:12.533Z,46.38
2023-05-05T09:47:26.081Z,46.48
2023-05-05T09:48:13.968Z,46.36
2023-05-05T09:49:11.852Z,46.31
2023-05-05T09:50:12.820Z,46.22
2023-05-05T09:51:11.816Z,46.64
2023-05-05T09:52:12.525Z,46.36
2023-05-05T09:53:11.833Z,46.46
2023-05-05T09:54:12.527Z,46.32
2023-05-05T09:55:11.839Z,46.55
2023-05-05T09:56:12.044Z,46.85
2023-05-05T09:57:11.854Z,46.93
2023-05-05T09:58:11.894Z,46.69
2023-05-05T09:59:11.919Z,46.70
2023-05-05T10:00:12.131Z,46.79
2023-05-05T10:01:11.992Z,46.77
2023-05-05T10:02:11.957Z,46.78
2023-05-05T10:03:11.856Z,46.73
2023-05-05T10:04:11.862Z,46.99
2023-05-05T10:05:11.882Z,46.70
2023-05-05T10:06:11.873Z,46.95
2023-05-05T10:07:11.867Z,47.02
2023-05-05T10:08:11.881Z,46.99
2023-05-05T10:09:11.879Z,47.04
2023-05-05T10:10:12.046Z,47.08
2023-05-05T10:11:11.881Z,47.10
2023-05-05T10:12:12.043Z,47.17
2023-05-05T10:13:12.009Z,47.33
2023-05-05T10:14:12.530Z,47.16
2023-05-05T10:15:11.917Z,46.87
2023-05-05T10:16:12.544Z,46.31
2023-05-05T10:17:12.453Z,46.22
2023-05-05T10:18:12.581Z,46.39
2023-05-05T10:19:11.936Z,46.88
2023-05-05T10:20:11.951Z,46.99
2023-05-05T10:21:12.540Z,47.39
2023-05-05T10:22:11.982Z,47.72
2023-05-05T10:23:11.981Z,47.71
2023-05-05T10:24:11.976Z,48.22
2023-05-05T10:25:12.083Z,48.46
2023-05-05T10:26:12.074Z,48.53
2023-05-05T10:27:12.715Z,48.94
2023-05-05T10:28:12.272Z,48.93
2023-05-05T10:29:12.324Z,49.01
2023-05-05T10:30:12.289Z,48.26
2023-05-05T10:31:24.576Z,48.48
2023-05-05T10:32:37.123Z,48.62
2023-05-05T10:33:30.167Z,48.53
2023-05-05T10:34:13.499Z,48.87
2023-05-05T10:35:12.305Z,48.93
2023-05-05T10:36:12.317Z,48.71
2023-05-05T10:37:12.286Z,48.82
2023-05-05T10:38:13.297Z,48.82
2023-05-05T10:39:13.044Z,48.85
2023-05-05T10:40:12.290Z,48.79
2023-05-05T10:41:12.260Z,49.14
2023-05-05T10:42:12.242Z,49.24
2023-05-05T10:43:12.552Z,49.67
2023-05-05T10:44:12.254Z,49.74
2023-05-05T10:45:12.225Z,49.71
2023-05-05T10:46:12.223Z,49.92
2023-05-05T10:47:12.188Z,49.79
2023-05-05T10:48:12.237Z,49.70
2023-05-05T10:49:13.249Z,49.99
2023-05-05T10:50:12.177Z,50.27
2023-05-05T10:51:12.147Z,50.18
2023-05-05T10:52:12.143Z,50.04
2023-05-05T10:53:12.118Z,50.11
2023-05-05T10:54:12.133Z,50.08
2023-05-05T10:55:12.093Z,50.03
2023-05-05T10:56:13.053Z,50.14
2023-05-05T10:57:12.057Z,50.26
2023-05-05T10:58:12.052Z,50.10
2023-05-05T10:59:12.999Z,50.19
2023-05-05T11:00:14.578Z,50.45
2023-05-05T11:01:12.027Z,50.41
2023-05-05T11:02:12.059Z,50.75
2023-05-05T11:03:12.059Z,50.76
2023-05-05T11:04:11.963Z,50.61
2023-05-05T11:05:11.958Z,50.52
2023-05-05T11:06:11.921Z,50.47
2023-05-05T11:07:14.690Z,50.47
2023-05-05T11:08:11.893Z,50.41
2023-05-05T11:09:11.882Z,50.38
2023-05-05T11:10:12.012Z,50.42
2023-05-05T11:11:11.859Z,50.42
2023-05-05T11:12:11.856Z,50.43
2023-05-05T11:13:11.940Z,50.41
2023-05-05T11:14:11.822Z,50.42
2023-05-05T11:15:11.838Z,50.40
2023-05-05T11:16:11.848Z,50.44
2023-05-05T11:17:11.823Z,50.45
2023-05-05T11:18:11.860Z,50.43
2023-05-05T11:19:11.810Z,50.43
2023-05-05T11:20:11.801Z,50.41
2023-05-05T11:21:11.793Z,50.43
2023-05-05T11:22:11.866Z,50.40
2023-05-05T11:23:12.588Z,50.36
2023-05-05T11:24:11.787Z,50.37
2023-05-05T11:25:11.792Z,50.36
2023-05-05T11:26:12.780Z,50.39
2023-05-05T11:27:11.772Z,50.36
2023-05-05T11:28:11.898Z,50.37
2023-05-05T11:29:12.617Z,50.39
2023-05-05T11:30:11.855Z,50.34
2023-05-05T11:31:11.780Z,50.34
2023-05-05T11:32:11.813Z,50.32
2023-05-05T11:33:11.743Z,50.31
2023-05-05T11:34:11.752Z,50.33
2023-05-05T11:35:11.836Z,50.28
2023-05-05T11:36:11.764Z,50.32
2023-05-05T11:37:11.789Z,50.27
2023-05-05T11:38:12.107Z,50.25
2023-05-05T11:39:11.934Z,50.26
2023-05-05T11:40:12.063Z,50.27
2023-05-05T11:41:12.021Z,50.24
2023-05-05T11:42:12.069Z,50.22
2023-05-05T11:43:12.119Z,50.22
2023-05-05T11:44:12.193Z,50.20
2023-05-05T11:45:12.242Z,50.19
2023-05-05T11:46:12.373Z,50.18
2023-05-05T11:47:12.336Z,50.20
2023-05-05T11:48:12.518Z,50.17
2023-05-05T11:49:12.442Z,50.14
2023-05-05T11:50:12.506Z,50.11
2023-05-05T11:51:12.552Z,50.15
2023-05-05T11:52:12.626Z,50.14
2023-05-05T11:53:12.659Z,50.11
2023-05-05T11:54:12.719Z,50.08
2023-05-05T11:55:12.773Z,50.05
2023-05-05T11:56:12.837Z,50.07
2023-05-05T11:57:12.885Z,50.05
2023-05-05T11:58:12.926Z,50.03
2023-05-05T11:59:12.969Z,50.00
2023-05-05T12:00:13.077Z,50.00
2023-05-05T12:01:13.061Z,50.00
2023-05-05T12:02:13.098Z,49.97
2023-05-05T12:03:13.179Z,49.95
2023-05-05T12:04:13.349Z,49.91
2023-05-05T12:05:13.226Z,49.92
2023-05-05T12:06:13.260Z,49.87
2023-05-05T12:07:13.306Z,49.91
2023-05-05T12:08:13.343Z,49.86
2023-05-05T12:09:13.382Z,49.84
2023-05-05T12:10:13.422Z,49.80
2023-05-05T12:11:13.450Z,49.81
2023-05-05T12:12:13.498Z,49.81
2023-05-05T12:13:13.576Z,49.79
2023-05-05T12:14:13.563Z,49.75
2023-05-05T12:15:14.582Z,49.75
2023-05-05T12:16:13.662Z,49.75
2023-05-05T12:17:13.661Z,49.70
2023-05-05T12:18:13.750Z,49.65
2023-05-05T12:19:13.728Z,49.65
2023-05-05T12:20:13.976Z,49.62
2023-05-05T12:21:13.803Z,49.62
2023-05-05T12:22:13.831Z,49.60
2023-05-05T12:23:13.853Z,49.59
2023-05-05T12:24:13.871Z,49.58
2023-05-05T12:25:13.906Z,49.56
2023-05-05T12:26:13.925Z,49.54
2023-05-05T12:27:13.954Z,49.53
2023-05-05T12:28:13.993Z,49.54
2023-05-05T12:29:14.008Z,49.51
2023-05-05T12:30:14.045Z,49.49
2023-05-05T12:31:14.237Z,49.50
2023-05-05T12:32:14.302Z,49.46
2023-05-05T12:33:14.087Z,49.43
2023-05-05T12:34:14.176Z,49.43
2023-05-05T12:35:14.127Z,49.44
2023-05-05T12:36:14.250Z,49.41
2023-05-05T12:37:14.159Z,49.39
2023-05-05T12:38:14.183Z,49.39
2023-05-05T12:39:14.197Z,49.35
2023-05-05T12:40:14.215Z,49.35
2023-05-05T12:41:14.239Z,49.35
2023-05-05T12:42:14.243Z,49.31
2023-05-05T12:43:14.262Z,49.28
2023-05-05T12:44:14.275Z,49.29
2023-05-05T12:45:14.301Z,49.26
2023-05-05T12:46:14.365Z,49.25
2023-05-05T12:47:14.327Z,49.23
2023-05-05T12:48:14.333Z,49.24
2023-05-05T12:49:14.349Z,49.24
2023-05-05T12:50:14.355Z,49.19
2023-05-05T12:51:14.369Z,49.17
2023-05-05T12:52:14.459Z,49.19
2023-05-05T12:53:14.373Z,49.16